createdAt,value
2022-10-20T00:00:31.091Z,1015.50
2022-10-20T00:01:31.111Z,1015.41
2022-10-20T00:02:31.183Z,1015.46
2022-10-20T00:03:31.162Z,1015.44
2022-10-20T00:04:31.183Z,1015.39
2022-10-20T00:05:31.195Z,1015.40
2022-10-20T00:06:31.215Z,1015.38
2022-10-20T00:07:31.234Z,1015.36
2022-10-20T00:08:31.272Z,1015.39
2022-10-20T00:09:31.280Z,1015.37
2022-10-20T00:10:31.294Z,1015.34
2022-10-20T00:11:31.329Z,1015.38
2022-10-20T00:12:31.333Z,1015.38
2022-10-20T00:13:31.354Z,1015.34
2022-10-20T00:14:31.376Z,1015.30
2022-10-20T00:15:31.396Z,1015.35
2022-10-20T00:16:31.418Z,1015.32
2022-10-20T00:17:31.439Z,1015.26
2022-10-20T00:18:31.455Z,1015.26
2022-10-20T00:19:31.478Z,1015.22
2022-10-20T00:20:31.506Z,1015.20
2022-10-20T00:21:31.523Z,1015.19
2022-10-20T00:22:31.539Z,1015.19
2022-10-20T00:23:31.561Z,1015.17
2022-10-20T00:24:31.579Z,1015.16
2022-10-20T00:25:31.603Z,1015.12
2022-10-20T00:26:31.622Z,1015.10
2022-10-20T00:27:31.655Z,1015.08
2022-10-20T00:28:31.661Z,1015.04
2022-10-20T00:29:31.685Z,1015.04
2022-10-20T00:30:31.703Z,1014.99
2022-10-20T00:31:31.722Z,1015.08
2022-10-20T00:32:31.744Z,1015.04
2022-10-20T00:33:31.762Z,1014.99
2022-10-20T00:34:31.783Z,1015.02
2022-10-20T00:35:31.804Z,1015.00
2022-10-20T00:36:31.825Z,1014.92
2022-10-20T00:37:31.845Z,1014.92
2022-10-20T00:38:31.865Z,1014.90
2022-10-20T00:39:31.888Z,1014.86
2022-10-20T00:40:31.913Z,1014.87
2022-10-20T00:41:31.930Z,1014.84
2022-10-20T00:42:31.942Z,1014.82
2022-10-20T00:43:31.972Z,1014.82
2022-10-20T00:44:31.985Z,1014.81
2022-10-20T00:45:32.008Z,1014.80
2022-10-20T00:46:32.026Z,1014.78
2022-10-20T00:47:32.079Z,1014.80
2022-10-20T00:48:32.071Z,1014.79
2022-10-20T00:49:32.084Z,1014.77
2022-10-20T00:50:32.106Z,1014.74
2022-10-20T00:51:32.135Z,1014.77
2022-10-20T00:52:32.371Z,1014.71
2022-10-20T00:53:32.173Z,1014.73
2022-10-20T00:54:32.189Z,1014.69
2022-10-20T00:55:32.209Z,1014.66
2022-10-20T00:56:32.230Z,1014.66
2022-10-20T00:57:32.268Z,1014.64
2022-10-20T00:58:32.266Z,1014.64
2022-10-20T00:59:32.296Z,1014.61
2022-10-20T01:00:32.312Z,1014.65
2022-10-20T01:01:32.385Z,1014.59
2022-10-20T01:02:32.353Z,1014.57
2022-10-20T01:03:32.374Z,1014.53
2022-10-20T01:04:32.401Z,1014.54
2022-10-20T01:05:32.415Z,1014.56
2022-10-20T01:06:32.433Z,1014.54
2022-10-20T01:07:32.563Z,1014.57
2022-10-20T01:08:32.503Z,1014.55
2022-10-20T01:09:32.514Z,1014.57
2022-10-20T01:10:32.519Z,1014.49
2022-10-20T01:11:32.535Z,1014.60
2022-10-20T01:12:32.556Z,1014.56
2022-10-20T01:13:32.574Z,1014.51
2022-10-20T01:14:32.597Z,1014.55
2022-10-20T01:15:32.623Z,1014.51
2022-10-20T01:16:32.635Z,1014.44
2022-10-20T01:17:32.920Z,1014.39
2022-10-20T01:18:32.677Z,1014.38
2022-10-20T01:19:32.698Z,1014.43
2022-10-20T01:20:32.720Z,1014.46
2022-10-20T01:21:32.739Z,1014.45
2022-10-20T01:22:32.758Z,1014.46
2022-10-20T01:23:32.778Z,1014.47
2022-10-20T01:24:32.799Z,1014.41
2022-10-20T01:25:32.819Z,1014.41
2022-10-20T01:26:32.838Z,1014.34
2022-10-20T01:27:33.121Z,1014.31
2022-10-20T01:28:32.887Z,1014.22
2022-10-20T01:29:32.901Z,1014.24
2022-10-20T01:30:32.927Z,1014.24
2022-10-20T01:31:32.959Z,1014.24
2022-10-20T01:32:32.962Z,1014.18
2022-10-20T01:33:32.983Z,1014.21
2022-10-20T01:34:33.001Z,1014.14
2022-10-20T01:35:33.023Z,1014.12
2022-10-20T01:36:33.043Z,1014.10
2022-10-20T01:37:48.370Z,1014.06
2022-10-20T01:38:33.080Z,1014.06
2022-10-20T01:39:33.104Z,1013.99
2022-10-20T01:40:33.126Z,1013.98
2022-10-20T01:41:33.146Z,1014.03
2022-10-20T01:43:33.186Z,1014.03
2022-10-20T01:44:33.205Z,1014.05
2022-10-20T01:45:33.224Z,1014.07
2022-10-20T01:46:33.246Z,1014.04
2022-10-20T01:47:33.628Z,1014.02
2022-10-20T01:48:33.287Z,1013.97
2022-10-20T01:49:33.312Z,1013.93
2022-10-20T01:50:33.324Z,1013.85
2022-10-20T01:51:33.388Z,1013.81
2022-10-20T01:52:33.589Z,1013.82
2022-10-20T01:53:33.388Z,1013.81
2022-10-20T01:54:33.409Z,1013.79
2022-10-20T01:55:33.427Z,1013.83
2022-10-20T01:56:33.458Z,1013.77
2022-10-20T01:57:33.464Z,1013.77
2022-10-20T01:58:33.489Z,1013.75
2022-10-20T01:59:33.514Z,1013.77
2022-10-20T02:00:33.531Z,1013.73
2022-10-20T02:01:33.596Z,1013.71
2022-10-20T02:02:33.690Z,1013.64
2022-10-20T02:03:33.588Z,1013.64
2022-10-20T02:04:33.610Z,1013.63
2022-10-20T02:05:33.630Z,1013.64
2022-10-20T02:06:33.651Z,1013.63
2022-10-20T02:07:33.674Z,1013.64
2022-10-20T02:08:33.748Z,1013.61
2022-10-20T02:09:33.714Z,1013.65
2022-10-20T02:10:33.732Z,1013.66
2022-10-20T02:11:33.752Z,1013.70
2022-10-20T02:12:34.110Z,1013.69
2022-10-20T02:13:33.792Z,1013.67
2022-10-20T02:14:33.812Z,1013.73
2022-10-20T02:15:33.833Z,1013.68
2022-10-20T02:16:33.854Z,1013.68
2022-10-20T02:17:33.874Z,1013.65
2022-10-20T02:18:33.895Z,1013.63
2022-10-20T02:19:33.915Z,1013.60
2022-10-20T02:20:33.933Z,1013.57
2022-10-20T02:21:33.955Z,1013.59
2022-10-20T02:22:34.390Z,1013.57
2022-10-20T02:23:36.565Z,1013.60
2022-10-20T02:24:34.015Z,1013.56
2022-10-20T02:25:34.035Z,1013.53
2022-10-20T02:26:34.061Z,1013.49
2022-10-20T02:27:34.075Z,1013.41
2022-10-20T02:28:34.116Z,1013.44
2022-10-20T02:29:34.119Z,1013.48
2022-10-20T02:30:34.139Z,1013.53
2022-10-20T02:31:34.156Z,1013.54
2022-10-20T02:32:34.439Z,1013.56
2022-10-20T02:33:34.197Z,1013.59
2022-10-20T02:34:34.220Z,1013.60
2022-10-20T02:35:34.239Z,1013.64
2022-10-20T02:36:34.258Z,1013.64
2022-10-20T02:37:34.627Z,1013.63
2022-10-20T02:38:34.299Z,1013.61
2022-10-20T02:39:34.315Z,1013.54
2022-10-20T02:40:34.340Z,1013.51
2022-10-20T02:41:34.359Z,1013.45
2022-10-20T02:42:34.380Z,1013.41
2022-10-20T02:43:34.400Z,1013.39
2022-10-20T02:44:34.419Z,1013.38
2022-10-20T02:45:34.439Z,1013.36
2022-10-20T02:46:34.461Z,1013.40
2022-10-20T02:47:34.816Z,1013.39
2022-10-20T02:48:34.499Z,1013.35
2022-10-20T02:49:34.521Z,1013.32
2022-10-20T02:50:34.542Z,1013.31
2022-10-20T02:51:34.561Z,1013.27
2022-10-20T02:52:34.582Z,1013.19
2022-10-20T02:53:34.604Z,1013.16
2022-10-20T02:54:34.621Z,1013.18
2022-10-20T02:55:34.662Z,1013.11
2022-10-20T02:56:34.661Z,1013.09
2022-10-20T02:57:35.073Z,1013.12
2022-10-20T02:58:34.702Z,1013.09
2022-10-20T02:59:34.722Z,1013.08
2022-10-20T03:00:34.743Z,1013.02
2022-10-20T03:01:34.791Z,1013.04
2022-10-20T03:02:34.786Z,1012.97
2022-10-20T03:03:34.804Z,1012.95
2022-10-20T03:04:34.824Z,1012.95
2022-10-20T03:05:34.844Z,1012.93
2022-10-20T03:06:34.864Z,1012.92
2022-10-20T03:07:35.366Z,1012.92
2022-10-20T03:08:34.942Z,1012.85
2022-10-20T03:09:34.925Z,1012.87
2022-10-20T03:10:34.943Z,1012.81
2022-10-20T03:11:34.963Z,1012.76
2022-10-20T03:12:34.985Z,1012.75
2022-10-20T03:13:35.011Z,1012.74
2022-10-20T03:14:35.028Z,1012.72
2022-10-20T03:15:35.047Z,1012.67
2022-10-20T03:16:35.065Z,1012.66
2022-10-20T03:17:35.462Z,1012.64
2022-10-20T03:18:35.131Z,1012.56
2022-10-20T03:19:35.126Z,1012.57
2022-10-20T03:20:35.147Z,1012.52
2022-10-20T03:21:35.168Z,1012.49
2022-10-20T03:22:35.241Z,1012.48
2022-10-20T03:23:35.208Z,1012.44
2022-10-20T03:24:35.229Z,1012.42
2022-10-20T03:25:35.248Z,1012.45
2022-10-20T03:26:35.265Z,1012.47
2022-10-20T03:27:35.658Z,1012.49
2022-10-20T03:28:35.309Z,1012.45
2022-10-20T03:29:35.327Z,1012.43
2022-10-20T03:30:35.364Z,1012.47
2022-10-20T03:31:35.414Z,1012.52
2022-10-20T03:32:35.626Z,1012.51
2022-10-20T03:33:35.407Z,1012.51
2022-10-20T03:34:35.428Z,1012.57
2022-10-20T03:35:35.442Z,1012.54
2022-10-20T03:36:35.467Z,1012.48
2022-10-20T03:37:35.490Z,1012.55
2022-10-20T03:38:35.508Z,1012.46
2022-10-20T03:39:35.535Z,1012.43
2022-10-20T03:40:35.546Z,1012.44
2022-10-20T03:41:35.568Z,1012.44
2022-10-20T03:42:36.027Z,1012.41
2022-10-20T03:43:35.608Z,1012.42
2022-10-20T03:44:35.630Z,1012.40
2022-10-20T03:45:35.650Z,1012.44
2022-10-20T03:46:35.670Z,1012.40
2022-10-20T03:47:35.689Z,1012.39
2022-10-20T03:48:35.716Z,1012.31
2022-10-20T03:49:35.732Z,1012.29
2022-10-20T03:50:35.749Z,1012.27
2022-10-20T03:51:35.770Z,1012.30
2022-10-20T03:52:35.973Z,1012.26
2022-10-20T03:53:35.811Z,1012.23
2022-10-20T03:54:35.834Z,1012.24
2022-10-20T03:55:35.852Z,1012.19
2022-10-20T03:56:35.875Z,1012.21
2022-10-20T03:57:36.225Z,1012.27
2022-10-20T03:58:35.912Z,1012.26
2022-10-20T03:59:35.927Z,1012.30
2022-10-20T04:00:35.965Z,1012.29
2022-10-20T04:01:36.043Z,1012.22
2022-10-20T04:02:36.293Z,1012.26
2022-10-20T04:03:36.018Z,1012.28
2022-10-20T04:04:36.035Z,1012.29
2022-10-20T04:05:36.053Z,1012.27
2022-10-20T04:06:36.073Z,1012.31
2022-10-20T04:07:36.095Z,1012.23
2022-10-20T04:08:36.154Z,1012.26
2022-10-20T04:09:36.135Z,1012.22
2022-10-20T04:10:36.152Z,1012.24
2022-10-20T04:11:36.174Z,1012.21
2022-10-20T04:12:36.469Z,1012.17
2022-10-20T04:13:36.215Z,1012.11
2022-10-20T04:14:36.237Z,1012.05
2022-10-20T04:15:36.259Z,1012.08
2022-10-20T04:16:36.275Z,1012.06
2022-10-20T04:17:36.341Z,1012.06
2022-10-20T04:18:36.315Z,1012.01
2022-10-20T04:19:36.336Z,1012.03
2022-10-20T04:20:38.264Z,1011.97
2022-10-20T04:21:36.376Z,1011.96
2022-10-20T04:22:36.726Z,1011.95
2022-10-20T04:23:36.417Z,1011.90
2022-10-20T04:24:36.436Z,1011.86
2022-10-20T04:25:36.458Z,1011.84
2022-10-20T04:26:36.479Z,1011.83
2022-10-20T04:27:36.649Z,1011.87
2022-10-20T04:28:36.519Z,1011.80
2022-10-20T04:29:36.539Z,1011.77
2022-10-20T04:30:36.560Z,1011.78
2022-10-20T04:31:36.578Z,1011.72
2022-10-20T04:32:36.601Z,1011.75
2022-10-20T04:33:36.618Z,1011.72
2022-10-20T04:34:36.641Z,1011.74
2022-10-20T04:35:36.704Z,1011.75
2022-10-20T04:36:36.682Z,1011.69
2022-10-20T04:37:36.864Z,1011.71
2022-10-20T04:38:36.723Z,1011.66
2022-10-20T04:39:36.752Z,1011.70
2022-10-20T04:40:36.766Z,1011.68
2022-10-20T04:41:36.783Z,1011.64
2022-10-20T04:42:36.803Z,1011.68
2022-10-20T04:43:36.826Z,1011.63
2022-10-20T04:44:36.844Z,1011.59
2022-10-20T04:45:36.864Z,1011.63
2022-10-20T04:46:36.882Z,1011.56
2022-10-20T04:47:37.161Z,1011.57
2022-10-20T04:48:36.926Z,1011.49
2022-10-20T04:49:36.947Z,1011.48
2022-10-20T04:50:36.966Z,1011.47
2022-10-20T04:51:36.986Z,1011.43
2022-10-20T04:52:37.006Z,1011.43
2022-10-20T04:53:37.031Z,1011.43
2022-10-20T04:54:37.047Z,1011.36
2022-10-20T04:55:37.068Z,1011.38
2022-10-20T04:56:37.088Z,1011.35
2022-10-20T04:57:37.279Z,1011.28
2022-10-20T04:58:37.130Z,1011.33
2022-10-20T04:59:37.150Z,1011.21
2022-10-20T05:00:37.172Z,1011.22
2022-10-20T05:01:37.231Z,1011.22
2022-10-20T05:02:37.216Z,1011.18
2022-10-20T05:03:37.228Z,1011.28
2022-10-20T05:04:37.247Z,1011.27
2022-10-20T05:05:37.270Z,1011.23
2022-10-20T05:06:37.291Z,1011.23
2022-10-20T05:07:37.609Z,1011.21
2022-10-20T05:08:37.358Z,1011.21
2022-10-20T05:09:37.354Z,1011.20
2022-10-20T05:10:37.372Z,1011.17
2022-10-20T05:11:37.393Z,1011.13
2022-10-20T05:12:37.772Z,1011.11
2022-10-20T05:13:37.438Z,1011.08
2022-10-20T05:14:37.457Z,1011.13
2022-10-20T05:15:37.476Z,1011.10
2022-10-20T05:16:37.507Z,1011.11
2022-10-20T05:17:37.513Z,1011.11
2022-10-20T05:18:37.534Z,1011.06
2022-10-20T05:19:37.559Z,1011.05
2022-10-20T05:20:41.185Z,1011.08
2022-10-20T05:21:37.604Z,1011.03
2022-10-20T05:22:38.038Z,1011.01
2022-10-20T05:23:37.639Z,1010.99
2022-10-20T05:24:37.658Z,1010.98
2022-10-20T05:25:37.677Z,1010.94
2022-10-20T05:26:37.699Z,1010.88
2022-10-20T05:27:37.725Z,1010.91
2022-10-20T05:28:37.737Z,1010.87
2022-10-20T05:29:37.759Z,1010.91
2022-10-20T05:30:37.822Z,1010.89
2022-10-20T05:31:37.804Z,1010.86
2022-10-20T05:32:38.105Z,1010.84
2022-10-20T05:33:37.841Z,1010.82
2022-10-20T05:34:37.859Z,1010.82
2022-10-20T05:35:37.880Z,1010.81
2022-10-20T05:36:37.900Z,1010.81
2022-10-20T05:37:37.922Z,1010.77
2022-10-20T05:38:37.942Z,1010.77
2022-10-20T05:39:38.037Z,1010.76
2022-10-20T05:40:37.981Z,1010.69
2022-10-20T05:41:39.054Z,1010.73
2022-10-20T05:42:38.498Z,1010.64
2022-10-20T05:43:38.040Z,1010.59
2022-10-20T05:44:38.066Z,1010.60
2022-10-20T05:45:38.085Z,1010.59
2022-10-20T05:46:38.103Z,1010.55
2022-10-20T05:47:38.124Z,1010.56
2022-10-20T05:48:42.205Z,1010.56
2022-10-20T05:49:38.167Z,1010.57
2022-10-20T05:50:38.256Z,1010.53
2022-10-20T05:51:38.204Z,1010.58
2022-10-20T05:52:38.629Z,1010.58
2022-10-20T05:53:38.250Z,1010.55
2022-10-20T05:54:38.266Z,1010.55
2022-10-20T05:55:38.287Z,1010.53
2022-10-20T05:56:38.306Z,1010.49
2022-10-20T05:57:38.332Z,1010.45
2022-10-20T05:58:38.357Z,1010.46
2022-10-20T05:59:38.367Z,1010.47
2022-10-20T06:00:38.388Z,1010.47
2022-10-20T06:01:38.424Z,1010.50
2022-10-20T06:02:38.779Z,1010.48
2022-10-20T06:03:38.456Z,1010.49
2022-10-20T06:04:38.473Z,1010.45
2022-10-20T06:05:38.489Z,1010.43
2022-10-20T06:06:38.511Z,1010.41
2022-10-20T06:07:38.535Z,1010.42
2022-10-20T06:08:38.585Z,1010.45
2022-10-20T06:09:38.573Z,1010.46
2022-10-20T06:10:38.588Z,1010.44
2022-10-20T06:11:39.633Z,1010.43
2022-10-20T06:12:38.946Z,1010.38
2022-10-20T06:13:38.655Z,1010.41
2022-10-20T06:14:38.675Z,1010.40
2022-10-20T06:15:38.692Z,1010.37
2022-10-20T06:16:38.715Z,1010.34
2022-10-20T06:17:38.741Z,1010.30
2022-10-20T06:18:38.755Z,1010.27
2022-10-20T06:19:38.777Z,1010.22
2022-10-20T06:20:38.797Z,1010.18
2022-10-20T06:21:38.921Z,1010.15
2022-10-20T06:22:46.015Z,1010.17
2022-10-20T06:24:43.328Z,1010.12
2022-10-20T06:25:42.857Z,1010.09
2022-10-20T06:27:46.879Z,1010.11
2022-10-20T06:28:46.879Z,1010.16
2022-10-20T06:30:51.370Z,1010.18
2022-10-20T06:31:50.900Z,1010.17
2022-10-20T06:33:54.907Z,1010.24
2022-10-20T06:34:54.918Z,1010.22
2022-10-20T06:36:59.411Z,1010.29
2022-10-20T06:37:58.954Z,1010.26
2022-10-20T06:40:02.957Z,1010.30
2022-10-20T06:41:02.981Z,1010.34
2022-10-20T06:43:55.919Z,1010.28
2022-10-20T06:45:59.933Z,1010.25
2022-10-20T06:46:59.943Z,1010.23
2022-10-20T06:49:04.433Z,1010.25
2022-10-20T06:50:03.968Z,1010.23
2022-10-20T06:52:08.093Z,1010.14
2022-10-20T06:53:07.994Z,1010.15
2022-10-20T06:55:12.481Z,1010.17
2022-10-20T06:56:12.014Z,1010.18
2022-10-20T06:58:16.015Z,1010.16
2022-10-20T06:59:16.033Z,1010.16
2022-10-20T07:01:20.548Z,1010.19
2022-10-20T07:02:20.056Z,1010.19
2022-10-20T07:04:24.069Z,1010.20
2022-10-20T07:05:24.086Z,1010.23
2022-10-20T07:07:28.600Z,1010.14
2022-10-20T07:08:28.164Z,1010.16
2022-10-20T07:10:32.111Z,1010.11
2022-10-20T07:11:32.117Z,1010.04
2022-10-20T07:13:36.609Z,1010.00
2022-10-20T07:14:36.140Z,1009.96
2022-10-20T07:16:40.170Z,1010.02
2022-10-20T07:17:40.164Z,1010.09
2022-10-20T07:19:44.663Z,1010.05
2022-10-20T07:20:44.194Z,1010.02
2022-10-20T07:22:37.559Z,1010.08
2022-10-20T07:23:37.131Z,1010.09
2022-10-20T07:25:41.624Z,1010.14
2022-10-20T07:26:41.154Z,1010.07
2022-10-20T07:28:45.167Z,1010.11
2022-10-20T07:29:45.176Z,1010.06
2022-10-20T07:31:49.668Z,1010.06
2022-10-20T07:32:49.201Z,1010.08
2022-10-20T07:34:53.209Z,1010.05
2022-10-20T07:35:53.248Z,1010.08
2022-10-20T07:37:57.712Z,1010.06
2022-10-20T07:38:57.247Z,1009.94
2022-10-20T07:41:01.773Z,1009.96
2022-10-20T07:42:01.270Z,1009.95
2022-10-20T07:44:05.760Z,1009.96
2022-10-20T07:45:05.307Z,1009.96
2022-10-20T07:47:09.304Z,1010.02
2022-10-20T07:48:09.323Z,1010.07
2022-10-20T07:50:14.310Z,1010.01
2022-10-20T07:53:06.277Z,1010.06
2022-10-20T07:54:06.300Z,1010.06
2022-10-20T07:55:59.767Z,1010.10
2022-10-20T07:56:59.437Z,1010.09
2022-10-20T07:59:03.453Z,1010.06
2022-10-20T08:00:03.467Z,1010.00
2022-10-20T08:02:08.029Z,1009.92
2022-10-20T08:03:07.489Z,1009.93
2022-10-20T08:05:11.503Z,1009.93
2022-10-20T08:06:11.515Z,1009.99
2022-10-20T08:08:16.010Z,1009.90
2022-10-20T08:09:15.538Z,1009.84
2022-10-20T08:11:19.551Z,1009.90
2022-10-20T08:12:19.565Z,1009.84
2022-10-20T08:14:24.062Z,1009.76
2022-10-20T08:15:23.610Z,1009.72
2022-10-20T08:17:28.522Z,1009.78
2022-10-20T08:18:30.520Z,1009.74
2022-10-20T08:20:34.058Z,1009.74
2022-10-20T08:21:31.651Z,1009.72
2022-10-20T08:23:35.660Z,1009.76
2022-10-20T08:24:35.679Z,1009.77
2022-10-20T08:27:44.147Z,1009.70
2022-10-20T08:28:43.682Z,1009.70
2022-10-20T08:30:47.698Z,1009.66
2022-10-20T08:31:47.764Z,1009.67
2022-10-20T08:33:53.089Z,1009.65
2022-10-20T08:34:51.736Z,1009.62
2022-10-20T08:36:55.786Z,1009.53
2022-10-20T08:37:55.769Z,1009.51
2022-10-20T08:40:00.301Z,1009.50
2022-10-20T08:40:59.807Z,1009.46
2022-10-20T08:42:52.741Z,1009.49
2022-10-20T08:43:52.753Z,1009.46
2022-10-20T08:45:57.248Z,1009.36
2022-10-20T08:46:56.792Z,1009.36
2022-10-20T08:49:00.790Z,1009.30
2022-10-20T08:50:00.805Z,1009.30
2022-10-20T08:52:05.304Z,1009.40
2022-10-20T08:53:04.839Z,1009.35
2022-10-20T08:55:08.900Z,1009.36
2022-10-20T08:56:08.871Z,1009.41
2022-10-20T08:58:13.858Z,1009.40
2022-10-20T08:59:12.900Z,1009.41
2022-10-20T09:01:16.954Z,1009.35
2022-10-20T09:02:16.928Z,1009.39
2022-10-20T09:04:21.423Z,1009.37
2022-10-20T09:05:20.959Z,1009.37
2022-10-20T09:07:24.970Z,1009.39
2022-10-20T09:08:24.992Z,1009.41
2022-10-20T09:10:29.485Z,1009.39
2022-10-20T09:11:29.024Z,1009.41
2022-10-20T09:13:33.041Z,1009.33
2022-10-20T09:14:33.057Z,1009.33
2022-10-20T09:16:40.460Z,1009.30
2022-10-20T09:17:26.208Z,1009.35
2022-10-20T09:19:30.250Z,1009.32
2022-10-20T09:20:30.240Z,1009.28
2022-10-20T09:22:23.719Z,1009.20
2022-10-20T09:23:40.121Z,1009.17
2022-10-20T09:25:27.209Z,1009.13
2022-10-20T09:26:45.031Z,1009.06
2022-10-20T09:28:20.705Z,1009.02
2022-10-20T09:29:20.381Z,1008.99
2022-10-20T09:31:24.413Z,1009.03
2022-10-20T09:34:28.921Z,1009.11
2022-10-20T09:35:28.476Z,1009.11
2022-10-20T09:37:21.595Z,1009.08
2022-10-20T09:38:21.612Z,1009.09
2022-10-20T09:40:26.109Z,1009.01
2022-10-20T09:41:25.647Z,1008.98
2022-10-20T09:43:29.663Z,1009.03
2022-10-20T09:44:29.680Z,1009.01
2022-10-20T09:46:34.175Z,1009.02
2022-10-20T09:47:33.714Z,1009.04
2022-10-20T09:49:37.737Z,1009.01
2022-10-20T09:50:37.750Z,1008.99
2022-10-20T09:52:31.233Z,1008.98
2022-10-20T09:53:30.715Z,1009.01
2022-10-20T09:55:34.721Z,1009.01
2022-10-20T09:56:34.741Z,1008.98
2022-10-20T09:58:39.234Z,1008.92
2022-10-20T09:59:38.778Z,1008.93
2022-10-20T10:01:42.791Z,1008.96
2022-10-20T10:02:42.809Z,1008.96
2022-10-20T10:04:47.303Z,1008.95
2022-10-20T10:05:46.841Z,1008.90
2022-10-20T10:07:50.853Z,1008.84
2022-10-20T10:08:50.921Z,1008.83
2022-10-20T10:10:55.367Z,1008.92
2022-10-20T10:11:54.910Z,1008.85
2022-10-20T10:13:58.930Z,1008.83
2022-10-20T10:14:58.943Z,1008.86
2022-10-20T10:17:03.440Z,1008.84
2022-10-20T10:18:02.980Z,1008.82
2022-10-20T10:20:06.992Z,1008.73
2022-10-20T10:21:07.015Z,1008.67
2022-10-20T10:23:00.495Z,1008.62
2022-10-20T10:23:59.971Z,1008.61
2022-10-20T10:26:03.993Z,1008.64
2022-10-20T10:27:04.006Z,1008.61
2022-10-20T10:30:12.501Z,1008.58
2022-10-20T10:31:12.047Z,1008.53
2022-10-20T10:33:04.983Z,1008.51
2022-10-20T10:34:05.001Z,1008.49
2022-10-20T10:36:09.492Z,1008.47
2022-10-20T10:37:09.081Z,1008.46
2022-10-20T10:39:13.069Z,1008.48
2022-10-20T10:40:13.076Z,1008.47
2022-10-20T10:42:17.578Z,1008.40
2022-10-20T10:43:17.115Z,1008.40
2022-10-20T10:45:10.252Z,1008.31
2022-10-20T10:46:10.270Z,1008.26
2022-10-20T10:48:14.764Z,1008.27
2022-10-20T10:49:14.311Z,1008.28
2022-10-20T10:51:18.339Z,1008.27
2022-10-20T10:52:18.350Z,1008.28
2022-10-20T10:54:22.857Z,1008.28
2022-10-20T10:55:48.194Z,1008.26
2022-10-20T10:57:26.430Z,1008.33
2022-10-20T10:58:26.442Z,1008.27
2022-10-20T11:00:30.968Z,1008.28
2022-10-20T11:01:30.481Z,1008.22
2022-10-20T11:03:37.620Z,1008.21
2022-10-20T11:04:34.517Z,1008.20
2022-10-20T11:06:39.011Z,1008.19
2022-10-20T11:07:38.846Z,1008.25
2022-10-20T11:09:42.568Z,1008.22
2022-10-20T11:10:42.586Z,1008.21
2022-10-20T11:12:36.070Z,1008.25
2022-10-20T11:13:35.539Z,1008.25
2022-10-20T11:15:28.680Z,1008.22
2022-10-20T11:16:28.700Z,1008.17
2022-10-20T11:18:33.206Z,1008.17
2022-10-20T11:19:32.738Z,1008.12
2022-10-20T11:21:25.879Z,1008.07
2022-10-20T11:22:25.898Z,1008.08
2022-10-20T11:24:30.397Z,1008.02
2022-10-20T11:25:29.933Z,1008.08
2022-10-20T11:27:34.409Z,1007.98
2022-10-20T11:28:33.976Z,1007.95
2022-10-20T11:30:38.476Z,1007.89
2022-10-20T11:31:38.013Z,1007.90
2022-10-20T11:33:42.070Z,1007.92
2022-10-20T11:34:42.059Z,1007.95
2022-10-20T11:36:47.051Z,1007.85
2022-10-20T11:37:46.100Z,1007.82
2022-10-20T11:39:50.115Z,1007.79
2022-10-20T11:40:50.130Z,1007.79
2022-10-20T11:42:43.609Z,1007.83
2022-10-20T11:43:43.091Z,1007.94
2022-10-20T11:45:47.601Z,1007.98
2022-10-20T11:46:47.148Z,1008.08
2022-10-20T11:48:51.687Z,1008.08
2022-10-20T11:49:51.187Z,1008.08
2022-10-20T11:51:55.214Z,1008.08
2022-10-20T11:52:55.232Z,1008.10
2022-10-20T11:54:48.725Z,1008.08
2022-10-20T11:55:48.398Z,1008.10
2022-10-20T11:57:52.567Z,1008.08
2022-10-20T11:58:52.434Z,1008.08
2022-10-20T12:00:59.575Z,1008.01
2022-10-20T12:01:56.520Z,1008.00
2022-10-20T12:04:01.077Z,1008.04
2022-10-20T12:05:00.528Z,1008.02
2022-10-20T12:07:05.034Z,1008.06
2022-10-20T12:08:24.637Z,1008.06
2022-10-20T12:10:08.599Z,1008.09
2022-10-20T12:11:08.615Z,1008.06
2022-10-20T12:13:02.129Z,1008.08
2022-10-20T12:14:01.585Z,1008.07
2022-10-20T12:16:05.614Z,1008.11
2022-10-20T12:17:05.631Z,1008.12
2022-10-20T12:19:10.130Z,1008.03
2022-10-20T12:20:09.676Z,1008.02
2022-10-20T12:22:13.693Z,1008.03
2022-10-20T12:23:13.709Z,1008.01
2022-10-20T12:25:18.209Z,1008.01
2022-10-20T12:26:17.749Z,1008.04
2022-10-20T12:28:21.770Z,1007.98
2022-10-20T12:29:21.786Z,1007.94
2022-10-20T12:32:19.259Z,1007.89
2022-10-20T12:33:18.735Z,1007.86
2022-10-20T12:35:22.759Z,1007.86
2022-10-20T12:36:22.776Z,1007.88
2022-10-20T12:38:27.270Z,1007.88
2022-10-20T12:39:26.810Z,1007.81
2022-10-20T12:41:30.824Z,1007.77
2022-10-20T12:42:30.845Z,1007.70
2022-10-20T12:44:35.336Z,1007.62
2022-10-20T12:45:34.881Z,1007.59
2022-10-20T12:47:39.147Z,1007.51
2022-10-20T12:48:38.909Z,1007.51
2022-10-20T12:50:43.403Z,1007.55
2022-10-20T12:51:42.945Z,1007.58
2022-10-20T12:53:46.955Z,1007.64
2022-10-20T12:54:48.748Z,1007.73
2022-10-20T12:56:51.466Z,1007.76
2022-10-20T12:57:51.007Z,1007.78
2022-10-20T12:59:44.135Z,1007.75
2022-10-20T13:00:44.113Z,1007.67
2022-10-20T13:03:41.449Z,1007.62
2022-10-20T13:04:43.318Z,1007.66
2022-10-20T13:06:44.999Z,1007.59
2022-10-20T13:07:45.017Z,1007.58
2022-10-20T13:09:49.511Z,1007.65
2022-10-20T13:10:49.051Z,1007.64
2022-10-20T13:12:42.009Z,1007.70
2022-10-20T13:13:42.021Z,1007.71
2022-10-20T13:15:46.528Z,1007.66
2022-10-20T13:16:46.053Z,1007.71
2022-10-20T13:18:50.074Z,1007.73
2022-10-20T13:19:50.103Z,1007.74
2022-10-20T13:21:54.582Z,1007.77
2022-10-20T13:22:54.161Z,1007.82
2022-10-20T13:24:58.138Z,1007.83
2022-10-20T13:25:58.155Z,1007.85
2022-10-20T13:28:02.641Z,1007.87
2022-10-20T13:29:02.184Z,1007.93
2022-10-20T13:31:06.235Z,1007.91
2022-10-20T13:32:06.268Z,1007.91
2022-10-20T13:34:10.705Z,1007.90
2022-10-20T13:35:10.247Z,1007.91
2022-10-20T13:37:15.023Z,1007.92
2022-10-20T13:38:14.283Z,1007.92
2022-10-20T13:40:22.738Z,1007.91
2022-10-20T13:41:18.318Z,1007.89
2022-10-20T13:43:11.257Z,1007.93
2022-10-20T13:44:12.103Z,1007.93
2022-10-20T13:46:15.762Z,1007.99
2022-10-20T13:47:15.307Z,1007.96
2022-10-20T13:49:19.317Z,1007.97
2022-10-20T13:52:23.826Z,1007.94
2022-10-20T13:53:23.360Z,1007.99
2022-10-20T13:55:27.387Z,1007.94
2022-10-20T13:56:29.751Z,1007.90
2022-10-20T13:58:31.890Z,1007.86
2022-10-20T13:59:31.444Z,1007.88
2022-10-20T14:01:24.673Z,1007.87
2022-10-20T14:02:24.601Z,1007.88
2022-10-20T14:05:33.263Z,1007.85
2022-10-20T14:06:32.804Z,1007.79
2022-10-20T14:08:36.936Z,1007.85
2022-10-20T14:09:38.644Z,1007.81
2022-10-20T14:11:41.325Z,1007.82
2022-10-20T14:12:40.863Z,1007.81
2022-10-20T14:14:44.884Z,1007.73
2022-10-20T14:15:44.894Z,1007.76
2022-10-20T14:17:49.404Z,1007.65
2022-10-20T14:18:48.916Z,1007.61
2022-10-20T14:20:53.513Z,1007.64
2022-10-20T14:21:53.136Z,1007.66
2022-10-20T14:23:57.628Z,1007.58
2022-10-20T14:24:57.168Z,1007.59
2022-10-20T14:27:01.194Z,1007.54
2022-10-20T14:28:02.819Z,1007.54
2022-10-20T14:30:05.699Z,1007.52
2022-10-20T14:31:05.236Z,1007.49
2022-10-20T14:32:58.170Z,1007.47
2022-10-20T14:33:58.187Z,1007.52
2022-10-20T14:36:02.681Z,1007.57
2022-10-20T14:37:02.258Z,1007.57
2022-10-20T14:39:06.218Z,1007.51
2022-10-20T14:40:06.236Z,1007.53
2022-10-20T14:42:10.729Z,1007.47
2022-10-20T14:43:10.267Z,1007.50
2022-10-20T14:45:14.281Z,1007.58
2022-10-20T14:46:14.290Z,1007.53
2022-10-20T14:48:18.785Z,1007.49
2022-10-20T14:49:18.320Z,1007.41
2022-10-20T14:51:22.337Z,1007.55
2022-10-20T14:52:22.353Z,1007.59
2022-10-20T14:54:26.896Z,1007.48
2022-10-20T14:55:26.379Z,1007.44
2022-10-20T14:57:30.512Z,1007.42
2022-10-20T14:58:30.401Z,1007.40
2022-10-20T15:00:34.901Z,1007.25
2022-10-20T15:01:34.427Z,1007.20
2022-10-20T15:03:38.473Z,1007.25
2022-10-20T15:04:38.457Z,1007.24
2022-10-20T15:06:42.944Z,1007.20
2022-10-20T15:07:42.479Z,1007.21
2022-10-20T15:09:46.496Z,1007.17
2022-10-20T15:10:46.506Z,1007.21
2022-10-20T15:12:40.297Z,1007.11
2022-10-20T15:13:39.459Z,1007.13
2022-10-20T15:15:43.469Z,1007.15
2022-10-20T15:16:43.482Z,1007.16